sensor_id;sensor_type;location;lat;lon;timestamp;temperature;humidity
11095;DHT22;5601;44.490;11.400;2022-07-23T10:41:14;36.70;71.40
11095;DHT22;5601;44.490;11.400;2022-07-23T10:43:41;36.70;71.40
11095;DHT22;5601;44.490;11.400;2022-07-23T10:46:24;36.80;71.50
11095;DHT22;5601;44.490;11.400;2022-07-23T10:49:22;37.00;70.70
11095;DHT22;5601;44.490;11.400;2022-07-23T10:52:15;37.10;70.30
11095;DHT22;5601;44.490;11.400;2022-07-23T10:54:43;37.10;71.00
11095;DHT22;5601;44.490;11.400;2022-07-23T10:57:13;37.20;71.00
11095;DHT22;5601;44.490;11.400;2022-07-23T11:02:55;36.90;70.70
11095;DHT22;5601;44.490;11.400;2022-07-23T11:05:25;37.10;71.00
11095;DHT22;5601;44.490;11.400;2022-07-23T11:08:13;37.30;70.60
11095;DHT22;5601;44.490;11.400;2022-07-23T11:10:44;37.50;70.10
11095;DHT22;5601;44.490;11.400;2022-07-23T11:13:44;37.40;69.90
11095;DHT22;5601;44.490;11.400;2022-07-23T11:16:17;37.30;70.00
11095;DHT22;5601;44.490;11.400;2022-07-23T11:19:12;37.20;70.70
11095;DHT22;5601;44.490;11.400;2022-07-23T11:21:41;37.20;70.40
11095;DHT22;5601;44.490;11.400;2022-07-23T11:24:10;37.40;70.60
11095;DHT22;5601;44.490;11.400;2022-07-23T11:26:46;37.60;70.40
11095;DHT22;5601;44.490;11.400;2022-07-23T11:32:35;37.80;69.80
11095;DHT22;5601;44.490;11.400;2022-07-23T11:35:19;37.80;69.70
11095;DHT22;5601;44.490;11.400;2022-07-23T11:37:47;37.60;69.90
11095;DHT22;5601;44.490;11.400;2022-07-23T11:40:16;37.60;69.70
11095;DHT22;5601;44.490;11.400;2022-07-23T11:42:54;37.60;69.40
11095;DHT22;5601;44.490;11.400;2022-07-23T11:45:22;37.70;69.40
11095;DHT22;5601;44.490;11.400;2022-07-23T11:47:52;37.80;69.60
11095;DHT22;5601;44.490;11.400;2022-07-23T11:50:24;38.00;69.30
11095;DHT22;5601;44.490;11.400;2022-07-23T11:52:52;38.10;69.20
11095;DHT22;5601;44.490;11.400;2022-07-23T11:55:19;38.30;69.10
11095;DHT22;5601;44.490;11.400;2022-07-23T11:57:47;38.30;68.60
11095;DHT22;5601;44.490;11.400;2022-07-23T12:00:17;38.50;68.60
11095;DHT22;5601;44.490;11.400;2022-07-23T12:02:46;38.40;68.60
11095;DHT22;5601;44.490;11.400;2022-07-23T12:05:16;38.50;68.30
11095;DHT22;5601;44.490;11.400;2022-07-23T12:07:44;38.70;67.90
11095;DHT22;5601;44.490;11.400;2022-07-23T12:10:17;38.70;68.00
11095;DHT22;5601;44.490;11.400;2022-07-23T12:12:46;38.90;68.00
11095;DHT22;5601;44.490;11.400;2022-07-23T12:15:16;39.00;68.00
11095;DHT22;5601;44.490;11.400;2022-07-23T12:17:46;39.00;67.60
11095;DHT22;5601;44.490;11.400;2022-07-23T12:20:17;39.10;68.20
11095;DHT22;5601;44.490;11.400;2022-07-23T12:22:46;39.20;67.90
11095;DHT22;5601;44.490;11.400;2022-07-23T12:25:15;38.90;67.50
11095;DHT22;5601;44.490;11.400;2022-07-23T12:27:43;38.80;68.10
11095;DHT22;5601;44.490;11.400;2022-07-23T12:30:23;38.50;67.90
11095;DHT22;5601;44.490;11.400;2022-07-23T12:32:53;38.40;68.10
11095;DHT22;5601;44.490;11.400;2022-07-23T12:35:22;38.50;68.40
11095;DHT22;5601;44.490;11.400;2022-07-23T12:37:51;38.60;68.10
11095;DHT22;5601;44.490;11.400;2022-07-23T12:40:23;38.60;68.10
11095;DHT22;5601;44.490;11.400;2022-07-23T12:42:52;38.30;68.50
11095;DHT22;5601;44.490;11.400;2022-07-23T12:45:20;38.50;68.50
11095;DHT22;5601;44.490;11.400;2022-07-23T12:48:17;38.70;68.40
11095;DHT22;5601;44.490;11.400;2022-07-23T12:50:52;38.90;68.00
11095;DHT22;5601;44.490;11.400;2022-07-23T12:53:21;38.70;67.90
11095;DHT22;5601;44.490;11.400;2022-07-23T12:55:50;38.60;68.10
11095;DHT22;5601;44.490;11.400;2022-07-23T12:58:19;38.80;68.40
11095;DHT22;5601;44.490;11.400;2022-07-23T13:00:59;39.10;68.40
11095;DHT22;5601;44.490;11.400;2022-07-23T13:03:32;39.20;68.40
11095;DHT22;5601;44.490;11.400;2022-07-23T13:06:01;39.30;67.90
11095;DHT22;5601;44.490;11.400;2022-07-23T13:08:30;39.30;67.70
11095;DHT22;5601;44.490;11.400;2022-07-23T13:10:58;39.10;67.90
11095;DHT22;5601;44.490;11.400;2022-07-23T13:13:28;39.00;68.10
11095;DHT22;5601;44.490;11.400;2022-07-23T13:15:57;39.10;67.80
11095;DHT22;5601;44.490;11.400;2022-07-23T13:18:26;39.00;67.50
11095;DHT22;5601;44.490;11.400;2022-07-23T13:20:54;38.90;67.70
11095;DHT22;5601;44.490;11.400;2022-07-23T13:23:24;39.00;68.00
11095;DHT22;5601;44.490;11.400;2022-07-23T13:25:52;39.00;67.80
11095;DHT22;5601;44.490;11.400;2022-07-23T13:28:20;38.90;67.50
11095;DHT22;5601;44.490;11.400;2022-07-23T13:30:49;38.80;67.90
11095;DHT22;5601;44.490;11.400;2022-07-23T13:33:18;38.90;68.30
11095;DHT22;5601;44.490;11.400;2022-07-23T13:35:46;39.00;68.10
11095;DHT22;5601;44.490;11.400;2022-07-23T13:38:14;39.00;68.40
11095;DHT22;5601;44.490;11.400;2022-07-23T13:40:45;39.10;68.20
11095;DHT22;5601;44.490;11.400;2022-07-23T13:43:15;39.10;67.80
11095;DHT22;5601;44.490;11.400;2022-07-23T13:45:43;39.00;68.00
11095;DHT22;5601;44.490;11.400;2022-07-23T13:48:13;39.20;68.30
11095;DHT22;5601;44.490;11.400;2022-07-23T13:50:41;38.90;68.00
11095;DHT22;5601;44.490;11.400;2022-07-23T13:53:11;38.70;67.90
11095;DHT22;5601;44.490;11.400;2022-07-23T13:55:40;38.70;68.10
11095;DHT22;5601;44.490;11.400;2022-07-23T13:58:09;38.80;68.50
11095;DHT22;5601;44.490;11.400;2022-07-23T14:00:39;39.10;68.10
11095;DHT22;5601;44.490;11.400;2022-07-23T14:03:06;39.00;67.30
11095;DHT22;5601;44.490;11.400;2022-07-23T14:05:34;38.90;67.90
11095;DHT22;5601;44.490;11.400;2022-07-23T14:08:01;39.10;68.20
11095;DHT22;5601;44.490;11.400;2022-07-23T14:10:29;39.30;68.20
11095;DHT22;5601;44.490;11.400;2022-07-23T14:12:57;39.40;67.10
11095;DHT22;5601;44.490;11.400;2022-07-23T14:15:27;39.30;67.60
11095;DHT22;5601;44.490;11.400;2022-07-23T14:17:55;39.30;67.50
11095;DHT22;5601;44.490;11.400;2022-07-23T14:20:23;39.30;67.80
11095;DHT22;5601;44.490;11.400;2022-07-23T14:22:51;39.20;67.90
11095;DHT22;5601;44.490;11.400;2022-07-23T14:25:18;39.20;67.70
11095;DHT22;5601;44.490;11.400;2022-07-23T14:27:45;39.20;68.10
11095;DHT22;5601;44.490;11.400;2022-07-23T14:30:13;39.20;67.80
11095;DHT22;5601;44.490;11.400;2022-07-23T14:32:43;39.20;68.50
11095;DHT22;5601;44.490;11.400;2022-07-23T14:35:10;39.30;68.00
11095;DHT22;5601;44.490;11.400;2022-07-23T14:37:38;39.50;67.50
11095;DHT22;5601;44.490;11.400;2022-07-23T14:40:07;39.50;66.90
11095;DHT22;5601;44.490;11.400;2022-07-23T14:42:35;39.50;67.40
11095;DHT22;5601;44.490;11.400;2022-07-23T14:45:02;39.60;66.80
11095;DHT22;5601;44.490;11.400;2022-07-23T14:47:31;39.40;67.20
11095;DHT22;5601;44.490;11.400;2022-07-23T14:49:59;39.40;67.00
11095;DHT22;5601;44.490;11.400;2022-07-23T14:52:27;39.30;67.10
11095;DHT22;5601;44.490;11.400;2022-07-23T14:54:55;39.30;68.20
11095;DHT22;5601;44.490;11.400;2022-07-23T14:57:22;39.50;67.80
11095;DHT22;5601;44.490;11.400;2022-07-23T14:59:50;39.60;67.50
11095;DHT22;5601;44.490;11.400;2022-07-23T15:02:17;39.70;68.20
11095;DHT22;5601;44.490;11.400;2022-07-23T15:04:45;39.70;67.20
11095;DHT22;5601;44.490;11.400;2022-07-23T15:07:13;39.60;67.10
11095;DHT22;5601;44.490;11.400;2022-07-23T15:09:41;39.60;67.20
11095;DHT22;5601;44.490;11.400;2022-07-23T15:12:08;39.60;67.60
11095;DHT22;5601;44.490;11.400;2022-07-23T15:14:35;39.70;67.30
11095;DHT22;5601;44.490;11.400;2022-07-23T15:17:03;39.70;67.10
11095;DHT22;5601;44.490;11.400;2022-07-23T15:19:31;39.70;67.40
11095;DHT22;5601;44.490;11.400;2022-07-23T15:21:58;39.30;67.60
11095;DHT22;5601;44.490;11.400;2022-07-23T15:24:28;39.30;67.80
11095;DHT22;5601;44.490;11.400;2022-07-23T15:26:55;39.20;67.20
11095;DHT22;5601;44.490;11.400;2022-07-23T15:29:24;39.10;67.30
11095;DHT22;5601;44.490;11.400;2022-07-23T15:31:51;39.10;67.60
11095;DHT22;5601;44.490;11.400;2022-07-23T15:34:19;39.00;67.50
11095;DHT22;5601;44.490;11.400;2022-07-23T15:36:46;38.90;67.90
11095;DHT22;5601;44.490;11.400;2022-07-23T15:39:13;38.70;67.50
11095;DHT22;5601;44.490;11.400;2022-07-23T15:41:42;38.90;67.90
11095;DHT22;5601;44.490;11.400;2022-07-23T15:44:09;39.00;67.70
11095;DHT22;5601;44.490;11.400;2022-07-23T15:46:37;38.90;67.50
11095;DHT22;5601;44.490;11.400;2022-07-23T15:49:04;38.90;67.80
11095;DHT22;5601;44.490;11.400;2022-07-23T15:51:32;38.90;67.90
11095;DHT22;5601;44.490;11.400;2022-07-23T15:53:59;38.50;67.50
11095;DHT22;5601;44.490;11.400;2022-07-23T15:56:27;38.40;68.20
11095;DHT22;5601;44.490;11.400;2022-07-23T15:58:56;38.60;68.10
11095;DHT22;5601;44.490;11.400;2022-07-23T16:01:23;38.60;68.10
11095;DHT22;5601;44.490;11.400;2022-07-23T16:03:50;38.70;68.20
11095;DHT22;5601;44.490;11.400;2022-07-23T16:06:18;38.80;68.30
11095;DHT22;5601;44.490;11.400;2022-07-23T16:08:45;38.70;67.80
11095;DHT22;5601;44.490;11.400;2022-07-23T16:11:13;38.80;68.10
11095;DHT22;5601;44.490;11.400;2022-07-23T16:13:40;38.90;67.80
11095;DHT22;5601;44.490;11.400;2022-07-23T16:16:09;38.70;67.80
11095;DHT22;5601;44.490;11.400;2022-07-23T16:18:37;38.80;67.90
11095;DHT22;5601;44.490;11.400;2022-07-23T16:21:05;38.80;65.60
11095;DHT22;5601;44.490;11.400;2022-07-23T16:23:32;38.60;65.30
11095;DHT22;5601;44.490;11.400;2022-07-23T16:26:00;38.50;65.10
11095;DHT22;5601;44.490;11.400;2022-07-23T16:28:28;38.50;66.10
11095;DHT22;5601;44.490;11.400;2022-07-23T16:30:55;38.40;65.80
11095;DHT22;5601;44.490;11.400;2022-07-23T16:33:25;38.30;66.10
11095;DHT22;5601;44.490;11.400;2022-07-23T16:35:53;38.00;66.70
11095;DHT22;5601;44.490;11.400;2022-07-23T16:38:20;37.80;67.40
11095;DHT22;5601;44.490;11.400;2022-07-23T23:21:12;29.70;85.50
11095;DHT22;5601;44.490;11.400;2022-07-23T23:23:40;29.70;85.60
11095;DHT22;5601;44.490;11.400;2022-07-23T23:26:07;29.60;85.60
11095;DHT22;5601;44.490;11.400;2022-07-23T23:28:36;29.60;85.70
11095;DHT22;5601;44.490;11.400;2022-07-23T23:31:05;29.60;85.80
11095;DHT22;5601;44.490;11.400;2022-07-23T23:33:33;29.60;85.80
11095;DHT22;5601;44.490;11.400;2022-07-23T23:36:01;29.50;85.90
11095;DHT22;5601;44.490;11.400;2022-07-23T23:38:30;29.50;85.90
11095;DHT22;5601;44.490;11.400;2022-07-23T23:40:57;29.50;86.00
11095;DHT22;5601;44.490;11.400;2022-07-23T23:43:24;29.50;86.00
11095;DHT22;5601;44.490;11.400;2022-07-23T23:45:52;29.40;86.10
11095;DHT22;5601;44.490;11.400;2022-07-23T23:48:20;29.40;85.80
11095;DHT22;5601;44.490;11.400;2022-07-23T23:50:47;29.40;86.10
11095;DHT22;5601;44.490;11.400;2022-07-23T23:53:14;29.40;86.30
11095;DHT22;5601;44.490;11.400;2022-07-23T23:55:43;29.30;85.90
11095;DHT22;5601;44.490;11.400;2022-07-23T23:58:11;29.30;86.10
